Petropolis, Brazil
Current Conditions -  °F | °C
As of 8:00 PM on Monday 22 Dec 2014 (Local Time) from SBGL Reporting Station
Broken Clouds Broken Clouds  
Wind Chill: 84°   Ceiling: 2000
Heat Index: 91°   Visibility: 6mi
Dew Point: 73°   Wind: 5mph
Humidity: 70%   Direction: 270°W
Pressure: 29.83"   Gusts: NA
Location:  22.51°S, 43.2°W
Report Text: SBGL 222200Z 27004KT 9999 BKN020 FEW030TCU 29/23 Q1010
Loading
Personal Weather Stations






























Interactive Weather Map New forecast layout! Learn more

10-Day Weather Forecast

Advertisements
Track Severe Weather on mobile